sensor_id;sensor_type;location;lat;lon;timestamp;temperature;humidity
23291;DHT22;11814;44.686;10.842;2022-07-29T00:02:04;26.20;82.60
23291;DHT22;11814;44.686;10.842;2022-07-29T00:04:29;26.10;82.70
23291;DHT22;11814;44.686;10.842;2022-07-29T00:06:55;26.10;83.10
23291;DHT22;11814;44.686;10.842;2022-07-29T00:09:21;26.10;83.40
23291;DHT22;11814;44.686;10.842;2022-07-29T00:11:46;26.10;83.70
23291;DHT22;11814;44.686;10.842;2022-07-29T00:14:12;26.10;84.10
23291;DHT22;11814;44.686;10.842;2022-07-29T00:16:38;26.10;84.40
23291;DHT22;11814;44.686;10.842;2022-07-29T00:19:03;26.10;84.70
23291;DHT22;11814;44.686;10.842;2022-07-29T00:21:29;26.10;84.80
23291;DHT22;11814;44.686;10.842;2022-07-29T00:23:55;26.00;85.10
23291;DHT22;11814;44.686;10.842;2022-07-29T00:26:20;25.90;85.50
23291;DHT22;11814;44.686;10.842;2022-07-29T00:28:46;25.90;85.70
23291;DHT22;11814;44.686;10.842;2022-07-29T00:31:12;25.90;86.10
23291;DHT22;11814;44.686;10.842;2022-07-29T00:33:38;25.90;86.30
23291;DHT22;11814;44.686;10.842;2022-07-29T00:36:03;25.90;86.40
23291;DHT22;11814;44.686;10.842;2022-07-29T00:38:29;25.90;86.60
23291;DHT22;11814;44.686;10.842;2022-07-29T00:40:55;25.80;86.80
23291;DHT22;11814;44.686;10.842;2022-07-29T00:43:21;25.80;87.00
23291;DHT22;11814;44.686;10.842;2022-07-29T00:45:46;25.70;87.20
23291;DHT22;11814;44.686;10.842;2022-07-29T00:48:12;25.70;87.40
23291;DHT22;11814;44.686;10.842;2022-07-29T00:50:38;25.60;87.50
23291;DHT22;11814;44.686;10.842;2022-07-29T00:53:05;25.60;87.70
23291;DHT22;11814;44.686;10.842;2022-07-29T00:55:31;25.60;87.80
23291;DHT22;11814;44.686;10.842;2022-07-29T00:57:58;25.60;87.80
23291;DHT22;11814;44.686;10.842;2022-07-29T01:00:26;25.60;87.70
23291;DHT22;11814;44.686;10.842;2022-07-29T01:02:52;25.50;87.30
23291;DHT22;11814;44.686;10.842;2022-07-29T01:05:19;25.40;87.30
23291;DHT22;11814;44.686;10.842;2022-07-29T01:07:47;25.40;87.50
23291;DHT22;11814;44.686;10.842;2022-07-29T01:10:14;25.40;87.60
23291;DHT22;11814;44.686;10.842;2022-07-29T01:12:42;25.40;87.50
23291;DHT22;11814;44.686;10.842;2022-07-29T01:15:09;25.40;87.50
23291;DHT22;11814;44.686;10.842;2022-07-29T01:26:38;25.40;88.10
23291;DHT22;11814;44.686;10.842;2022-07-29T01:29:06;25.40;88.20
23291;DHT22;11814;44.686;10.842;2022-07-29T01:31:43;25.40;88.50
23291;DHT22;11814;44.686;10.842;2022-07-29T01:34:17;25.30;89.00
23291;DHT22;11814;44.686;10.842;2022-07-29T01:36:57;25.20;89.50
23291;DHT22;11814;44.686;10.842;2022-07-29T01:39:32;25.20;90.00
23291;DHT22;11814;44.686;10.842;2022-07-29T01:47:42;25.00;90.40
23291;DHT22;11814;44.686;10.842;2022-07-29T01:50:11;25.00;90.50
23291;DHT22;11814;44.686;10.842;2022-07-29T01:52:55;25.00;90.50
23291;DHT22;11814;44.686;10.842;2022-07-29T01:55:35;25.00;90.40
23291;DHT22;11814;44.686;10.842;2022-07-29T01:58:04;25.20;90.40
23291;DHT22;11814;44.686;10.842;2022-07-29T02:00:31;25.20;90.30
23291;DHT22;11814;44.686;10.842;2022-07-29T02:02:59;25.20;90.30
23291;DHT22;11814;44.686;10.842;2022-07-29T02:05:27;25.20;90.40
23291;DHT22;11814;44.686;10.842;2022-07-29T02:07:55;25.20;90.40
23291;DHT22;11814;44.686;10.842;2022-07-29T02:10:27;25.10;90.40
23291;DHT22;11814;44.686;10.842;2022-07-29T02:12:55;25.00;90.50
23291;DHT22;11814;44.686;10.842;2022-07-29T02:15:28;25.00;90.70
23291;DHT22;11814;44.686;10.842;2022-07-29T02:18:17;24.90;90.80
23291;DHT22;11814;44.686;10.842;2022-07-29T02:20:47;24.90;90.90
23291;DHT22;11814;44.686;10.842;2022-07-29T02:23:17;24.80;91.00
23291;DHT22;11814;44.686;10.842;2022-07-29T02:25:44;24.90;91.40
23291;DHT22;11814;44.686;10.842;2022-07-29T02:28:10;24.90;91.00
23291;DHT22;11814;44.686;10.842;2022-07-29T02:30:39;24.90;91.00
23291;DHT22;11814;44.686;10.842;2022-07-29T02:33:07;24.90;91.00
23291;DHT22;11814;44.686;10.842;2022-07-29T02:35:34;24.90;91.00
23291;DHT22;11814;44.686;10.842;2022-07-29T02:37:59;24.80;91.10
23291;DHT22;11814;44.686;10.842;2022-07-29T02:40:44;24.80;91.30
23291;DHT22;11814;44.686;10.842;2022-07-29T02:43:11;24.70;91.40
23291;DHT22;11814;44.686;10.842;2022-07-29T02:45:37;24.70;91.50
23291;DHT22;11814;44.686;10.842;2022-07-29T02:48:10;24.60;91.60
23291;DHT22;11814;44.686;10.842;2022-07-29T02:50:41;24.60;91.60
23291;DHT22;11814;44.686;10.842;2022-07-29T02:53:15;24.60;91.60
23291;DHT22;11814;44.686;10.842;2022-07-29T02:55:58;24.60;91.50
23291;DHT22;11814;44.686;10.842;2022-07-29T02:58:25;24.70;91.30
23291;DHT22;11814;44.686;10.842;2022-07-29T03:00:56;24.80;91.10
23291;DHT22;11814;44.686;10.842;2022-07-29T03:03:25;24.80;91.00
23291;DHT22;11814;44.686;10.842;2022-07-29T03:05:56;24.70;91.00
23291;DHT22;11814;44.686;10.842;2022-07-29T03:08:23;24.60;91.20
23291;DHT22;11814;44.686;10.842;2022-07-29T03:10:50;24.60;91.40
23291;DHT22;11814;44.686;10.842;2022-07-29T03:13:17;24.50;91.60
23291;DHT22;11814;44.686;10.842;2022-07-29T03:15:44;24.50;91.70
23291;DHT22;11814;44.686;10.842;2022-07-29T03:18:10;24.50;91.90
23291;DHT22;11814;44.686;10.842;2022-07-29T03:20:37;24.50;92.10
23291;DHT22;11814;44.686;10.842;2022-07-29T03:23:03;24.50;92.10
23291;DHT22;11814;44.686;10.842;2022-07-29T03:25:30;24.40;92.10
23291;DHT22;11814;44.686;10.842;2022-07-29T03:27:56;24.40;92.30
23291;DHT22;11814;44.686;10.842;2022-07-29T03:30:22;24.30;92.40
23291;DHT22;11814;44.686;10.842;2022-07-29T03:32:49;24.30;92.70
23291;DHT22;11814;44.686;10.842;2022-07-29T03:35:15;24.30;92.80
23291;DHT22;11814;44.686;10.842;2022-07-29T03:37:44;24.40;92.90
23291;DHT22;11814;44.686;10.842;2022-07-29T03:40:13;24.30;93.00
23291;DHT22;11814;44.686;10.842;2022-07-29T03:42:40;24.30;93.30
23291;DHT22;11814;44.686;10.842;2022-07-29T03:45:10;24.30;93.60
23291;DHT22;11814;44.686;10.842;2022-07-29T03:47:38;24.30;93.80
23291;DHT22;11814;44.686;10.842;2022-07-29T03:50:07;24.30;94.10
23291;DHT22;11814;44.686;10.842;2022-07-29T03:52:34;24.20;94.30
23291;DHT22;11814;44.686;10.842;2022-07-29T03:55:01;24.20;94.60
23291;DHT22;11814;44.686;10.842;2022-07-29T03:57:28;24.10;94.80
23291;DHT22;11814;44.686;10.842;2022-07-29T03:59:56;24.10;95.00
23291;DHT22;11814;44.686;10.842;2022-07-29T04:02:23;24.10;95.30
23291;DHT22;11814;44.686;10.842;2022-07-29T04:04:48;24.10;95.50
23291;DHT22;11814;44.686;10.842;2022-07-29T04:07:15;24.10;95.70
23291;DHT22;11814;44.686;10.842;2022-07-29T04:09:41;24.10;95.90
23291;DHT22;11814;44.686;10.842;2022-07-29T04:12:07;24.20;96.00
23291;DHT22;11814;44.686;10.842;2022-07-29T04:14:34;24.10;96.00
23291;DHT22;11814;44.686;10.842;2022-07-29T04:17:00;24.10;96.30
23291;DHT22;11814;44.686;10.842;2022-07-29T04:19:26;24.00;96.50
23291;DHT22;11814;44.686;10.842;2022-07-29T04:21:52;23.90;96.90
23291;DHT22;11814;44.686;10.842;2022-07-29T04:24:18;23.90;97.20
23291;DHT22;11814;44.686;10.842;2022-07-29T04:26:45;23.90;97.60
23291;DHT22;11814;44.686;10.842;2022-07-29T04:29:11;23.90;97.90
23291;DHT22;11814;44.686;10.842;2022-07-29T04:31:37;24.00;98.20
23291;DHT22;11814;44.686;10.842;2022-07-29T04:34:03;24.00;98.20
23291;DHT22;11814;44.686;10.842;2022-07-29T04:36:29;24.00;98.40
23291;DHT22;11814;44.686;10.842;2022-07-29T04:38:54;24.10;98.60
23291;DHT22;11814;44.686;10.842;2022-07-29T04:41:20;24.10;98.70
23291;DHT22;11814;44.686;10.842;2022-07-29T04:43:45;24.10;98.80
23291;DHT22;11814;44.686;10.842;2022-07-29T04:46:11;24.10;98.90
23291;DHT22;11814;44.686;10.842;2022-07-29T04:48:37;24.00;99.20
23291;DHT22;11814;44.686;10.842;2022-07-29T04:51:02;24.00;99.50
23291;DHT22;11814;44.686;10.842;2022-07-29T04:53:28;24.00;99.80
23291;DHT22;11814;44.686;10.842;2022-07-29T04:55:54;24.00;99.90
23291;DHT22;11814;44.686;10.842;2022-07-29T04:58:20;24.00;99.90
23291;DHT22;11814;44.686;10.842;2022-07-29T05:00:45;24.00;99.90
23291;DHT22;11814;44.686;10.842;2022-07-29T05:03:11;24.10;99.90
23291;DHT22;11814;44.686;10.842;2022-07-29T05:05:37;24.10;99.90
23291;DHT22;11814;44.686;10.842;2022-07-29T05:08:03;24.20;99.90
23291;DHT22;11814;44.686;10.842;2022-07-29T05:10:29;24.30;99.90
23291;DHT22;11814;44.686;10.842;2022-07-29T05:12:54;24.40;99.90
23291;DHT22;11814;44.686;10.842;2022-07-29T05:15:20;24.50;99.90
23291;DHT22;11814;44.686;10.842;2022-07-29T05:17:46;24.60;99.90
23291;DHT22;11814;44.686;10.842;2022-07-29T05:20:11;24.60;99.90
23291;DHT22;11814;44.686;10.842;2022-07-29T05:22:37;24.70;99.90
23291;DHT22;11814;44.686;10.842;2022-07-29T05:25:03;24.80;99.90
23291;DHT22;11814;44.686;10.842;2022-07-29T05:27:28;25.00;99.90
23291;DHT22;11814;44.686;10.842;2022-07-29T05:29:54;25.40;99.80
23291;DHT22;11814;44.686;10.842;2022-07-29T05:32:20;26.10;99.10
23291;DHT22;11814;44.686;10.842;2022-07-29T05:34:45;26.90;97.80
23291;DHT22;11814;44.686;10.842;2022-07-29T05:37:11;27.70;96.10
23291;DHT22;11814;44.686;10.842;2022-07-29T05:39:39;28.40;94.20
23291;DHT22;11814;44.686;10.842;2022-07-29T05:42:08;29.00;92.20
23291;DHT22;11814;44.686;10.842;2022-07-29T05:44:38;29.50;89.80
23291;DHT22;11814;44.686;10.842;2022-07-29T05:47:05;29.60;86.60
23291;DHT22;11814;44.686;10.842;2022-07-29T05:49:32;29.30;85.60
23291;DHT22;11814;44.686;10.842;2022-07-29T05:51:57;29.20;85.30
23291;DHT22;11814;44.686;10.842;2022-07-29T05:54:23;29.30;84.50
23291;DHT22;11814;44.686;10.842;2022-07-29T05:56:49;29.10;84.00
23291;DHT22;11814;44.686;10.842;2022-07-29T05:59:15;28.80;84.20
23291;DHT22;11814;44.686;10.842;2022-07-29T06:01:40;28.50;84.70
23291;DHT22;11814;44.686;10.842;2022-07-29T06:04:07;28.40;86.10
23291;DHT22;11814;44.686;10.842;2022-07-29T06:06:33;28.40;87.30
23291;DHT22;11814;44.686;10.842;2022-07-29T06:09:00;28.90;86.10
23291;DHT22;11814;44.686;10.842;2022-07-29T06:11:26;29.70;83.20
23291;DHT22;11814;44.686;10.842;2022-07-29T06:13:51;30.10;81.50
23291;DHT22;11814;44.686;10.842;2022-07-29T06:16:18;30.30;80.00
23291;DHT22;11814;44.686;10.842;2022-07-29T06:18:44;30.30;78.70
23291;DHT22;11814;44.686;10.842;2022-07-29T06:21:10;30.10;78.40
23291;DHT22;11814;44.686;10.842;2022-07-29T06:23:39;29.80;79.00
23291;DHT22;11814;44.686;10.842;2022-07-29T06:26:05;29.60;79.40
23291;DHT22;11814;44.686;10.842;2022-07-29T06:28:31;29.40;80.00
23291;DHT22;11814;44.686;10.842;2022-07-29T06:30:57;29.30;80.70
23291;DHT22;11814;44.686;10.842;2022-07-29T06:33:22;29.40;81.60
23291;DHT22;11814;44.686;10.842;2022-07-29T06:35:48;29.90;81.00
23291;DHT22;11814;44.686;10.842;2022-07-29T06:38:15;30.50;78.60
23291;DHT22;11814;44.686;10.842;2022-07-29T06:40:44;30.80;77.00
23291;DHT22;11814;44.686;10.842;2022-07-29T06:43:35;31.20;76.20
23291;DHT22;11814;44.686;10.842;2022-07-29T06:46:08;32.00;74.10
23291;DHT22;11814;44.686;10.842;2022-07-29T06:48:34;32.60;71.20
23291;DHT22;11814;44.686;10.842;2022-07-29T06:51:02;32.80;69.60
23291;DHT22;11814;44.686;10.842;2022-07-29T06:53:29;32.90;68.50
23291;DHT22;11814;44.686;10.842;2022-07-29T06:55:55;32.90;67.70
23291;DHT22;11814;44.686;10.842;2022-07-29T06:58:20;32.60;67.70
23291;DHT22;11814;44.686;10.842;2022-07-29T07:00:47;32.40;67.90
23291;DHT22;11814;44.686;10.842;2022-07-29T07:03:14;32.20;68.50
23291;DHT22;11814;44.686;10.842;2022-07-29T07:05:40;32.40;68.40
23291;DHT22;11814;44.686;10.842;2022-07-29T07:08:05;32.60;67.10
23291;DHT22;11814;44.686;10.842;2022-07-29T07:10:32;32.50;66.50
23291;DHT22;11814;44.686;10.842;2022-07-29T07:12:58;32.40;66.60
23291;DHT22;11814;44.686;10.842;2022-07-29T07:15:24;32.20;66.70
23291;DHT22;11814;44.686;10.842;2022-07-29T07:17:50;31.90;66.90
23291;DHT22;11814;44.686;10.842;2022-07-29T07:20:16;31.60;67.50
23291;DHT22;11814;44.686;10.842;2022-07-29T07:22:42;31.30;68.40
23291;DHT22;11814;44.686;10.842;2022-07-29T07:25:07;31.00;69.10
23291;DHT22;11814;44.686;10.842;2022-07-29T07:27:34;30.70;69.90
23291;DHT22;11814;44.686;10.842;2022-07-29T07:30:00;30.60;70.70
23291;DHT22;11814;44.686;10.842;2022-07-29T07:32:26;30.70;71.30
23291;DHT22;11814;44.686;10.842;2022-07-29T07:34:52;31.00;70.70
23291;DHT22;11814;44.686;10.842;2022-07-29T07:37:18;31.20;70.10
23291;DHT22;11814;44.686;10.842;2022-07-29T07:39:46;31.30;69.60
23291;DHT22;11814;44.686;10.842;2022-07-29T07:42:12;31.30;69.50
23291;DHT22;11814;44.686;10.842;2022-07-29T07:44:39;31.30;69.10
23291;DHT22;11814;44.686;10.842;2022-07-29T07:47:05;31.20;69.00
23291;DHT22;11814;44.686;10.842;2022-07-29T07:49:31;31.00;68.90
23291;DHT22;11814;44.686;10.842;2022-07-29T07:51:56;31.00;69.20
23291;DHT22;11814;44.686;10.842;2022-07-29T07:54:22;30.80;69.50
23291;DHT22;11814;44.686;10.842;2022-07-29T07:56:48;30.80;70.10
23291;DHT22;11814;44.686;10.842;2022-07-29T07:59:16;31.00;69.70
23291;DHT22;11814;44.686;10.842;2022-07-29T08:01:42;31.20;69.20
23291;DHT22;11814;44.686;10.842;2022-07-29T08:04:08;31.30;69.20
23291;DHT22;11814;44.686;10.842;2022-07-29T08:06:34;31.20;69.00
23291;DHT22;11814;44.686;10.842;2022-07-29T08:09:02;31.20;68.90
23291;DHT22;11814;44.686;10.842;2022-07-29T08:11:28;31.20;69.20
23291;DHT22;11814;44.686;10.842;2022-07-29T08:13:54;31.10;69.30
23291;DHT22;11814;44.686;10.842;2022-07-29T08:16:20;31.10;69.10
23291;DHT22;11814;44.686;10.842;2022-07-29T08:18:46;31.10;69.20
23291;DHT22;11814;44.686;10.842;2022-07-29T08:21:13;31.20;69.00
23291;DHT22;11814;44.686;10.842;2022-07-29T08:23:39;31.30;68.60
23291;DHT22;11814;44.686;10.842;2022-07-29T08:26:11;31.30;68.40
23291;DHT22;11814;44.686;10.842;2022-07-29T08:28:42;31.20;68.60
23291;DHT22;11814;44.686;10.842;2022-07-29T08:31:11;31.10;68.70
23291;DHT22;11814;44.686;10.842;2022-07-29T08:33:37;31.20;68.90
23291;DHT22;11814;44.686;10.842;2022-07-29T08:36:03;31.20;68.90
23291;DHT22;11814;44.686;10.842;2022-07-29T08:38:29;31.20;68.80
23291;DHT22;11814;44.686;10.842;2022-07-29T08:40:54;31.20;68.90
23291;DHT22;11814;44.686;10.842;2022-07-29T08:43:20;31.10;68.70
23291;DHT22;11814;44.686;10.842;2022-07-29T08:45:51;31.00;68.80
23291;DHT22;11814;44.686;10.842;2022-07-29T08:48:21;30.90;69.00
23291;DHT22;11814;44.686;10.842;2022-07-29T08:50:50;30.80;69.30
23291;DHT22;11814;44.686;10.842;2022-07-29T08:53:18;30.80;69.30
23291;DHT22;11814;44.686;10.842;2022-07-29T08:55:46;30.80;69.00
23291;DHT22;11814;44.686;10.842;2022-07-29T08:58:13;30.80;68.90
23291;DHT22;11814;44.686;10.842;2022-07-29T09:00:45;30.80;68.90
23291;DHT22;11814;44.686;10.842;2022-07-29T09:03:18;30.90;68.80
23291;DHT22;11814;44.686;10.842;2022-07-29T09:05:45;30.90;68.40
23291;DHT22;11814;44.686;10.842;2022-07-29T09:08:12;30.90;68.10
23291;DHT22;11814;44.686;10.842;2022-07-29T09:10:39;30.90;68.10
23291;DHT22;11814;44.686;10.842;2022-07-29T09:13:04;30.90;68.20
23291;DHT22;11814;44.686;10.842;2022-07-29T09:15:30;31.00;67.90
23291;DHT22;11814;44.686;10.842;2022-07-29T09:17:56;31.10;67.70
23291;DHT22;11814;44.686;10.842;2022-07-29T09:20:24;31.20;67.50
23291;DHT22;11814;44.686;10.842;2022-07-29T09:22:52;31.10;67.00
23291;DHT22;11814;44.686;10.842;2022-07-29T09:25:38;31.10;67.20
23291;DHT22;11814;44.686;10.842;2022-07-29T09:28:09;31.00;67.10
23291;DHT22;11814;44.686;10.842;2022-07-29T09:30:39;31.10;66.40
23291;DHT22;11814;44.686;10.842;2022-07-29T09:33:14;31.10;66.00
23291;DHT22;11814;44.686;10.842;2022-07-29T09:35:40;31.10;66.20
23291;DHT22;11814;44.686;10.842;2022-07-29T09:38:13;31.20;66.20
23291;DHT22;11814;44.686;10.842;2022-07-29T09:40:39;31.30;66.20
23291;DHT22;11814;44.686;10.842;2022-07-29T09:43:12;31.40;66.10
23291;DHT22;11814;44.686;10.842;2022-07-29T09:45:38;31.50;66.00
23291;DHT22;11814;44.686;10.842;2022-07-29T09:48:24;31.60;65.90
23291;DHT22;11814;44.686;10.842;2022-07-29T09:50:51;31.60;65.90
23291;DHT22;11814;44.686;10.842;2022-07-29T09:53:34;31.70;65.90
23291;DHT22;11814;44.686;10.842;2022-07-29T09:56:01;31.80;65.50
23291;DHT22;11814;44.686;10.842;2022-07-29T09:58:27;31.80;64.60
23291;DHT22;11814;44.686;10.842;2022-07-29T10:00:54;31.70;64.80
23291;DHT22;11814;44.686;10.842;2022-07-29T10:03:21;31.80;64.90
23291;DHT22;11814;44.686;10.842;2022-07-29T10:06:04;31.90;64.60
23291;DHT22;11814;44.686;10.842;2022-07-29T10:08:30;32.00;64.20
23291;DHT22;11814;44.686;10.842;2022-07-29T10:11:13;32.10;64.00
23291;DHT22;11814;44.686;10.842;2022-07-29T10:13:39;32.20;63.80
23291;DHT22;11814;44.686;10.842;2022-07-29T10:16:06;32.30;63.60
23291;DHT22;11814;44.686;10.842;2022-07-29T10:18:34;32.30;63.10
23291;DHT22;11814;44.686;10.842;2022-07-29T10:21:00;32.30;62.60
23291;DHT22;11814;44.686;10.842;2022-07-29T10:23:28;32.30;62.50
23291;DHT22;11814;44.686;10.842;2022-07-29T10:25:54;32.20;62.20
23291;DHT22;11814;44.686;10.842;2022-07-29T10:28:20;32.20;61.90
23291;DHT22;11814;44.686;10.842;2022-07-29T10:30:46;32.20;61.50
23291;DHT22;11814;44.686;10.842;2022-07-29T10:44:42;32.60;61.60
23291;DHT22;11814;44.686;10.842;2022-07-29T10:47:22;32.70;61.70
23291;DHT22;11814;44.686;10.842;2022-07-29T10:50:04;32.80;60.50
23291;DHT22;11814;44.686;10.842;2022-07-29T10:55:33;32.80;60.00
23291;DHT22;11814;44.686;10.842;2022-07-29T10:58:20;32.90;61.10
23291;DHT22;11814;44.686;10.842;2022-07-29T11:00:50;33.10;60.50
23291;DHT22;11814;44.686;10.842;2022-07-29T11:06:05;33.20;60.30
23291;DHT22;11814;44.686;10.842;2022-07-29T11:08:31;33.20;60.20
23291;DHT22;11814;44.686;10.842;2022-07-29T11:13:45;33.10;60.00
23291;DHT22;11814;44.686;10.842;2022-07-29T11:16:16;33.10;60.00
23291;DHT22;11814;44.686;10.842;2022-07-29T11:21:40;33.20;60.00
23291;DHT22;11814;44.686;10.842;2022-07-29T11:24:18;33.30;59.90
23291;DHT22;11814;44.686;10.842;2022-07-29T11:26:44;33.40;59.70
23291;DHT22;11814;44.686;10.842;2022-07-29T11:29:18;33.40;59.40
23291;DHT22;11814;44.686;10.842;2022-07-29T11:31:49;33.40;59.20
23291;DHT22;11814;44.686;10.842;2022-07-29T11:34:20;33.40;59.20
23291;DHT22;11814;44.686;10.842;2022-07-29T11:39:38;33.60;59.00
23291;DHT22;11814;44.686;10.842;2022-07-29T11:44:58;33.50;58.60
23291;DHT22;11814;44.686;10.842;2022-07-29T11:47:25;33.60;58.80
23291;DHT22;11814;44.686;10.842;2022-07-29T11:49:52;33.60;59.50
23291;DHT22;11814;44.686;10.842;2022-07-29T11:52:19;33.60;59.10
23291;DHT22;11814;44.686;10.842;2022-07-29T11:54:47;33.60;59.00
23291;DHT22;11814;44.686;10.842;2022-07-29T11:57:19;33.60;59.10
23291;DHT22;11814;44.686;10.842;2022-07-29T11:59:45;33.70;58.90
23291;DHT22;11814;44.686;10.842;2022-07-29T12:02:12;33.70;58.70
23291;DHT22;11814;44.686;10.842;2022-07-29T12:04:55;33.80;58.60
23291;DHT22;11814;44.686;10.842;2022-07-29T12:07:29;33.80;58.60
23291;DHT22;11814;44.686;10.842;2022-07-29T12:09:56;33.70;58.60
23291;DHT22;11814;44.686;10.842;2022-07-29T12:12:22;33.60;58.50
23291;DHT22;11814;44.686;10.842;2022-07-29T12:14:48;33.50;58.50
23291;DHT22;11814;44.686;10.842;2022-07-29T12:17:33;33.40;58.50
23291;DHT22;11814;44.686;10.842;2022-07-29T12:20:02;33.20;58.50
23291;DHT22;11814;44.686;10.842;2022-07-29T12:22:36;33.10;58.70
23291;DHT22;11814;44.686;10.842;2022-07-29T12:25:13;33.10;58.90
23291;DHT22;11814;44.686;10.842;2022-07-29T12:27:41;33.00;58.90
23291;DHT22;11814;44.686;10.842;2022-07-29T12:30:10;33.00;59.10
23291;DHT22;11814;44.686;10.842;2022-07-29T12:32:37;33.00;59.30
23291;DHT22;11814;44.686;10.842;2022-07-29T12:35:12;33.00;59.60
23291;DHT22;11814;44.686;10.842;2022-07-29T12:37:40;33.00;59.80
23291;DHT22;11814;44.686;10.842;2022-07-29T12:40:07;33.10;60.00
23291;DHT22;11814;44.686;10.842;2022-07-29T12:42:34;33.10;60.00
23291;DHT22;11814;44.686;10.842;2022-07-29T12:45:00;33.10;60.10
23291;DHT22;11814;44.686;10.842;2022-07-29T12:47:27;33.20;60.30
23291;DHT22;11814;44.686;10.842;2022-07-29T12:50:11;33.20;60.20
23291;DHT22;11814;44.686;10.842;2022-07-29T12:52:39;33.30;60.20
23291;DHT22;11814;44.686;10.842;2022-07-29T12:55:05;33.40;60.20
23291;DHT22;11814;44.686;10.842;2022-07-29T12:57:32;33.40;60.00
23291;DHT22;11814;44.686;10.842;2022-07-29T13:00:11;33.40;59.90
23291;DHT22;11814;44.686;10.842;2022-07-29T13:02:39;33.50;60.20
23291;DHT22;11814;44.686;10.842;2022-07-29T13:05:07;33.60;59.80
23291;DHT22;11814;44.686;10.842;2022-07-29T13:07:34;33.60;59.10
23291;DHT22;11814;44.686;10.842;2022-07-29T13:10:11;33.70;58.90
23291;DHT22;11814;44.686;10.842;2022-07-29T13:12:38;33.80;58.70
23291;DHT22;11814;44.686;10.842;2022-07-29T13:15:15;33.90;58.30
23291;DHT22;11814;44.686;10.842;2022-07-29T13:17:42;33.90;58.00
23291;DHT22;11814;44.686;10.842;2022-07-29T13:20:10;34.10;57.90
23291;DHT22;11814;44.686;10.842;2022-07-29T13:22:40;34.20;57.20
23291;DHT22;11814;44.686;10.842;2022-07-29T13:25:08;34.20;56.80
23291;DHT22;11814;44.686;10.842;2022-07-29T13:27:37;34.20;56.70
23291;DHT22;11814;44.686;10.842;2022-07-29T13:30:05;34.20;56.10
23291;DHT22;11814;44.686;10.842;2022-07-29T13:32:32;34.20;56.10
23291;DHT22;11814;44.686;10.842;2022-07-29T13:35:02;34.20;55.60
23291;DHT22;11814;44.686;10.842;2022-07-29T13:37:28;34.20;55.00
23291;DHT22;11814;44.686;10.842;2022-07-29T13:39:57;34.30;54.20
23291;DHT22;11814;44.686;10.842;2022-07-29T13:42:24;34.30;53.80
23291;DHT22;11814;44.686;10.842;2022-07-29T13:44:50;34.50;53.90
23291;DHT22;11814;44.686;10.842;2022-07-29T13:47:17;34.60;54.10
23291;DHT22;11814;44.686;10.842;2022-07-29T13:49:43;34.60;54.30
23291;DHT22;11814;44.686;10.842;2022-07-29T13:52:09;34.70;54.10
23291;DHT22;11814;44.686;10.842;2022-07-29T13:54:35;34.60;54.00
23291;DHT22;11814;44.686;10.842;2022-07-29T13:57:06;34.80;54.00
23291;DHT22;11814;44.686;10.842;2022-07-29T13:59:33;34.90;53.70
23291;DHT22;11814;44.686;10.842;2022-07-29T14:01:59;35.00;53.60
23291;DHT22;11814;44.686;10.842;2022-07-29T14:04:24;35.10;53.50
23291;DHT22;11814;44.686;10.842;2022-07-29T14:06:50;35.10;53.20
23291;DHT22;11814;44.686;10.842;2022-07-29T14:09:16;35.20;53.10
23291;DHT22;11814;44.686;10.842;2022-07-29T14:11:42;35.30;53.10
23291;DHT22;11814;44.686;10.842;2022-07-29T14:14:08;35.30;52.90
23291;DHT22;11814;44.686;10.842;2022-07-29T14:16:35;35.20;52.80
23291;DHT22;11814;44.686;10.842;2022-07-29T14:19:01;35.20;52.60
23291;DHT22;11814;44.686;10.842;2022-07-29T14:21:27;35.00;52.70
23291;DHT22;11814;44.686;10.842;2022-07-29T14:23:53;34.90;53.10
23291;DHT22;11814;44.686;10.842;2022-07-29T14:26:20;34.80;53.40
23291;DHT22;11814;44.686;10.842;2022-07-29T14:28:47;34.60;53.50
23291;DHT22;11814;44.686;10.842;2022-07-29T14:31:13;34.50;53.60
23291;DHT22;11814;44.686;10.842;2022-07-29T14:33:39;34.40;53.80
23291;DHT22;11814;44.686;10.842;2022-07-29T14:36:05;34.40;54.00
23291;DHT22;11814;44.686;10.842;2022-07-29T14:38:30;34.30;54.10
23291;DHT22;11814;44.686;10.842;2022-07-29T14:40:56;34.10;54.30
23291;DHT22;11814;44.686;10.842;2022-07-29T14:43:21;34.00;54.50
23291;DHT22;11814;44.686;10.842;2022-07-29T14:45:47;33.90;54.70
23291;DHT22;11814;44.686;10.842;2022-07-29T14:48:13;33.80;54.80
23291;DHT22;11814;44.686;10.842;2022-07-29T14:50:38;33.70;54.90
23291;DHT22;11814;44.686;10.842;2022-07-29T14:53:04;33.60;55.40
23291;DHT22;11814;44.686;10.842;2022-07-29T14:55:30;33.50;55.50
23291;DHT22;11814;44.686;10.842;2022-07-29T14:57:55;33.40;55.90
23291;DHT22;11814;44.686;10.842;2022-07-29T15:00:21;33.30;58.70
23291;DHT22;11814;44.686;10.842;2022-07-29T15:02:48;32.30;64.10
23291;DHT22;11814;44.686;10.842;2022-07-29T15:05:14;30.90;69.50
23291;DHT22;11814;44.686;10.842;2022-07-29T15:07:39;29.80;73.90
23291;DHT22;11814;44.686;10.842;2022-07-29T15:10:06;28.80;77.20
23291;DHT22;11814;44.686;10.842;2022-07-29T15:12:32;28.10;80.10
23291;DHT22;11814;44.686;10.842;2022-07-29T15:14:57;27.70;81.90
23291;DHT22;11814;44.686;10.842;2022-07-29T15:17:23;27.50;82.90
23291;DHT22;11814;44.686;10.842;2022-07-29T15:19:49;27.30;84.20
23291;DHT22;11814;44.686;10.842;2022-07-29T15:22:14;27.10;84.80
23291;DHT22;11814;44.686;10.842;2022-07-29T15:24:40;26.90;85.60
23291;DHT22;11814;44.686;10.842;2022-07-29T15:27:06;26.50;86.90
23291;DHT22;11814;44.686;10.842;2022-07-29T15:29:31;26.20;88.40
23291;DHT22;11814;44.686;10.842;2022-07-29T15:31:58;25.90;90.10
23291;DHT22;11814;44.686;10.842;2022-07-29T15:34:23;25.80;91.30
23291;DHT22;11814;44.686;10.842;2022-07-29T15:36:52;25.70;92.40
23291;DHT22;11814;44.686;10.842;2022-07-29T15:39:18;25.70;94.20
23291;DHT22;11814;44.686;10.842;2022-07-29T15:41:44;25.80;97.10
23291;DHT22;11814;44.686;10.842;2022-07-29T15:44:09;25.90;99.80
23291;DHT22;11814;44.686;10.842;2022-07-29T15:46:35;25.90;99.90
23291;DHT22;11814;44.686;10.842;2022-07-29T15:49:19;25.90;99.90
23291;DHT22;11814;44.686;10.842;2022-07-29T15:51:45;26.10;99.90
23291;DHT22;11814;44.686;10.842;2022-07-29T15:54:10;26.20;99.90
23291;DHT22;11814;44.686;10.842;2022-07-29T15:56:36;26.10;99.90
23291;DHT22;11814;44.686;10.842;2022-07-29T15:59:02;26.20;99.90
23291;DHT22;11814;44.686;10.842;2022-07-29T16:01:28;26.10;99.90
23291;DHT22;11814;44.686;10.842;2022-07-29T16:03:54;26.00;99.90